sensor_id;sensor_type;location;lat;lon;timestamp;pressure;altitude;pressure_sealevel;temperature;humidity
51526;BME280;37611;51.794;21.590;2023-09-18T00:03:54;100189.13;;;16.53;100.00
51526;BME280;37611;51.794;21.590;2023-09-18T00:07:55;100186.36;;;16.51;100.00
51526;BME280;37611;51.794;21.590;2023-09-18T00:11:58;100188.04;;;16.52;100.00
51526;BME280;37611;51.794;21.590;2023-09-18T00:16:00;100182.09;;;16.52;100.00
51526;BME280;37611;51.794;21.590;2023-09-18T00:20:03;100176.91;;;16.53;100.00
51526;BME280;37611;51.794;21.590;2023-09-18T00:24:07;100173.85;;;16.57;100.00
51526;BME280;37611;51.794;21.590;2023-09-18T00:28:11;100167.83;;;16.57;100.00
51526;BME280;37611;51.794;21.590;2023-09-18T00:32:12;100169.34;;;16.55;100.00
51526;BME280;37611;51.794;21.590;2023-09-18T00:36:14;100168.27;;;16.55;100.00
51526;BME280;37611;51.794;21.590;2023-09-18T00:40:16;100171.41;;;16.51;100.00
51526;BME280;37611;51.794;21.590;2023-09-18T00:44:18;100169.48;;;16.51;100.00
51526;BME280;37611;51.794;21.590;2023-09-18T00:48:20;100169.36;;;16.53;100.00
51526;BME280;37611;51.794;21.590;2023-09-18T00:52:23;100171.40;;;16.55;100.00
51526;BME280;37611;51.794;21.590;2023-09-18T00:56:26;100171.65;;;16.53;100.00
51526;BME280;37611;51.794;21.590;2023-09-18T01:00:28;100170.89;;;16.51;100.00
51526;BME280;37611;51.794;21.590;2023-09-18T01:04:30;100173.66;;;16.44;100.00
51526;BME280;37611;51.794;21.590;2023-09-18T01:08:34;100172.63;;;16.42;100.00
51526;BME280;37611;51.794;21.590;2023-09-18T01:12:46;100170.96;;;16.40;100.00
51526;BME280;37611;51.794;21.590;2023-09-18T01:20:55;100171.78;;;16.39;100.00
51526;BME280;37611;51.794;21.590;2023-09-18T01:24:57;100172.06;;;16.39;100.00
51526;BME280;37611;51.794;21.590;2023-09-18T01:29:00;100173.27;;;16.44;100.00
51526;BME280;37611;51.794;21.590;2023-09-18T01:33:02;100172.38;;;16.49;100.00
51526;BME280;37611;51.794;21.590;2023-09-18T01:37:06;100177.44;;;16.52;100.00
51526;BME280;37611;51.794;21.590;2023-09-18T01:41:08;100175.73;;;16.53;100.00
51526;BME280;37611;51.794;21.590;2023-09-18T01:45:11;100174.56;;;16.54;100.00
51526;BME280;37611;51.794;21.590;2023-09-18T01:49:12;100177.67;;;16.54;100.00
51526;BME280;37611;51.794;21.590;2023-09-18T01:53:14;100173.77;;;16.56;100.00
51526;BME280;37611;51.794;21.590;2023-09-18T01:57:16;100172.55;;;16.57;100.00
51526;BME280;37611;51.794;21.590;2023-09-18T02:01:18;100169.55;;;16.57;100.00
51526;BME280;37611;51.794;21.590;2023-09-18T02:05:20;100176.27;;;16.57;100.00
51526;BME280;37611;51.794;21.590;2023-09-18T02:09:22;100178.63;;;16.57;100.00
51526;BME280;37611;51.794;21.590;2023-09-18T02:13:23;100173.48;;;16.56;100.00
51526;BME280;37611;51.794;21.590;2023-09-18T02:17:25;100166.67;;;16.53;100.00
51526;BME280;37611;51.794;21.590;2023-09-18T02:21:27;100165.04;;;16.54;100.00
51526;BME280;37611;51.794;21.590;2023-09-18T02:25:29;100162.66;;;16.53;100.00
51526;BME280;37611;51.794;21.590;2023-09-18T02:29:31;100163.89;;;16.56;100.00
51526;BME280;37611;51.794;21.590;2023-09-18T02:33:32;100162.64;;;16.57;100.00
51526;BME280;37611;51.794;21.590;2023-09-18T02:37:34;100152.27;;;16.61;100.00
51526;BME280;37611;51.794;21.590;2023-09-18T02:41:36;100154.46;;;16.63;100.00
51526;BME280;37611;51.794;21.590;2023-09-18T02:45:39;100159.29;;;16.68;100.00
51526;BME280;37611;51.794;21.590;2023-09-18T02:49:42;100164.92;;;16.68;100.00
51526;BME280;37611;51.794;21.590;2023-09-18T02:53:43;100170.44;;;16.67;100.00
51526;BME280;37611;51.794;21.590;2023-09-18T02:57:45;100164.48;;;16.69;100.00
51526;BME280;37611;51.794;21.590;2023-09-18T03:01:47;100161.16;;;16.70;100.00
51526;BME280;37611;51.794;21.590;2023-09-18T03:05:49;100153.61;;;16.72;100.00
51526;BME280;37611;51.794;21.590;2023-09-18T03:09:50;100155.70;;;16.73;100.00
51526;BME280;37611;51.794;21.590;2023-09-18T03:13:52;100152.89;;;16.75;100.00
51526;BME280;37611;51.794;21.590;2023-09-18T03:17:55;100148.05;;;16.80;100.00
51526;BME280;37611;51.794;21.590;2023-09-18T03:21:56;100149.69;;;16.83;100.00
51526;BME280;37611;51.794;21.590;2023-09-18T03:25:58;100149.29;;;16.84;100.00
51526;BME280;37611;51.794;21.590;2023-09-18T03:30:01;100146.70;;;16.86;100.00
51526;BME280;37611;51.794;21.590;2023-09-18T03:34:03;100147.97;;;16.86;100.00
51526;BME280;37611;51.794;21.590;2023-09-18T03:38:04;100145.02;;;16.87;100.00
51526;BME280;37611;51.794;21.590;2023-09-18T03:42:06;100142.70;;;16.90;100.00
51526;BME280;37611;51.794;21.590;2023-09-18T03:46:08;100143.78;;;16.93;100.00
51526;BME280;37611;51.794;21.590;2023-09-18T03:50:10;100142.83;;;16.92;100.00
51526;BME280;37611;51.794;21.590;2023-09-18T03:54:12;100144.95;;;16.95;100.00
51526;BME280;37611;51.794;21.590;2023-09-18T03:58:14;100145.80;;;16.95;100.00
51526;BME280;37611;51.794;21.590;2023-09-18T04:02:16;100142.06;;;16.98;100.00
51526;BME280;37611;51.794;21.590;2023-09-18T04:06:18;100137.59;;;17.00;100.00
51526;BME280;37611;51.794;21.590;2023-09-18T04:10:22;100132.44;;;17.02;100.00
51526;BME280;37611;51.794;21.590;2023-09-18T04:14:26;100131.24;;;17.01;100.00
51526;BME280;37611;51.794;21.590;2023-09-18T04:18:28;100130.80;;;17.01;100.00
51526;BME280;37611;51.794;21.590;2023-09-18T04:22:30;100131.77;;;17.04;100.00
51526;BME280;37611;51.794;21.590;2023-09-18T04:26:31;100130.53;;;17.10;100.00
51526;BME280;37611;51.794;21.590;2023-09-18T04:30:34;100130.70;;;17.14;100.00
51526;BME280;37611;51.794;21.590;2023-09-18T04:34:36;100128.82;;;17.15;100.00
51526;BME280;37611;51.794;21.590;2023-09-18T04:38:38;100119.58;;;17.17;100.00
51526;BME280;37611;51.794;21.590;2023-09-18T04:42:39;100121.88;;;17.17;100.00
51526;BME280;37611;51.794;21.590;2023-09-18T04:46:41;100118.15;;;17.20;100.00
51526;BME280;37611;51.794;21.590;2023-09-18T04:50:43;100117.79;;;17.20;100.00
51526;BME280;37611;51.794;21.590;2023-09-18T04:54:45;100117.25;;;17.20;100.00
51526;BME280;37611;51.794;21.590;2023-09-18T04:58:47;100121.38;;;17.24;100.00
51526;BME280;37611;51.794;21.590;2023-09-18T05:02:48;100124.96;;;17.28;100.00
51526;BME280;37611;51.794;21.590;2023-09-18T05:06:50;100120.23;;;17.27;100.00
51526;BME280;37611;51.794;21.590;2023-09-18T05:10:53;100119.34;;;17.29;100.00
51526;BME280;37611;51.794;21.590;2023-09-18T05:14:55;100115.22;;;17.30;100.00
51526;BME280;37611;51.794;21.590;2023-09-18T05:18:57;100107.73;;;17.34;100.00
51526;BME280;37611;51.794;21.590;2023-09-18T05:23:00;100101.08;;;17.34;100.00
51526;BME280;37611;51.794;21.590;2023-09-18T05:27:04;100100.50;;;17.35;100.00
51526;BME280;37611;51.794;21.590;2023-09-18T05:31:07;100099.02;;;17.38;100.00
51526;BME280;37611;51.794;21.590;2023-09-18T05:35:09;100096.38;;;17.47;100.00
51526;BME280;37611;51.794;21.590;2023-09-18T05:39:12;100092.14;;;17.50;100.00
51526;BME280;37611;51.794;21.590;2023-09-18T05:43:14;100084.43;;;17.57;100.00
51526;BME280;37611;51.794;21.590;2023-09-18T05:47:16;100078.71;;;17.64;100.00
51526;BME280;37611;51.794;21.590;2023-09-18T05:51:18;100073.77;;;17.71;100.00
51526;BME280;37611;51.794;21.590;2023-09-18T05:55:20;100073.13;;;17.78;100.00
51526;BME280;37611;51.794;21.590;2023-09-18T05:59:22;100070.85;;;17.88;100.00
51526;BME280;37611;51.794;21.590;2023-09-18T06:03:24;100072.61;;;17.99;100.00
51526;BME280;37611;51.794;21.590;2023-09-18T06:07:26;100077.80;;;18.07;100.00
51526;BME280;37611;51.794;21.590;2023-09-18T06:11:28;100079.37;;;18.13;100.00
51526;BME280;37611;51.794;21.590;2023-09-18T06:15:30;100077.68;;;18.21;100.00
51526;BME280;37611;51.794;21.590;2023-09-18T06:19:32;100072.02;;;18.31;100.00
51526;BME280;37611;51.794;21.590;2023-09-18T06:23:35;100066.33;;;18.42;100.00
51526;BME280;37611;51.794;21.590;2023-09-18T06:27:37;100065.45;;;18.49;100.00
51526;BME280;37611;51.794;21.590;2023-09-18T06:31:39;100061.60;;;18.57;100.00
51526;BME280;37611;51.794;21.590;2023-09-18T06:35:40;100059.23;;;18.65;100.00
51526;BME280;37611;51.794;21.590;2023-09-18T06:39:43;100058.73;;;18.70;100.00
51526;BME280;37611;51.794;21.590;2023-09-18T06:43:45;100062.44;;;18.69;100.00
51526;BME280;37611;51.794;21.590;2023-09-18T06:47:46;100066.92;;;18.72;100.00
51526;BME280;37611;51.794;21.590;2023-09-18T06:51:48;100070.16;;;18.80;100.00
51526;BME280;37611;51.794;21.590;2023-09-18T06:55:50;100064.35;;;19.00;100.00
51526;BME280;37611;51.794;21.590;2023-09-18T06:59:52;100063.30;;;19.26;100.00
51526;BME280;37611;51.794;21.590;2023-09-18T07:03:53;100060.17;;;19.49;100.00
51526;BME280;37611;51.794;21.590;2023-09-18T07:07:55;100059.66;;;19.71;100.00
51526;BME280;37611;51.794;21.590;2023-09-18T07:11:58;100059.48;;;19.88;100.00
51526;BME280;37611;51.794;21.590;2023-09-18T07:16:00;100061.60;;;20.08;100.00
51526;BME280;37611;51.794;21.590;2023-09-18T07:20:02;100059.64;;;20.29;100.00
51526;BME280;37611;51.794;21.590;2023-09-18T07:24:15;100057.58;;;20.45;100.00
51526;BME280;37611;51.794;21.590;2023-09-18T07:28:18;100061.85;;;20.59;100.00
51526;BME280;37611;51.794;21.590;2023-09-18T07:32:21;100067.94;;;20.72;100.00
51526;BME280;37611;51.794;21.590;2023-09-18T07:36:23;100064.60;;;20.89;100.00
51526;BME280;37611;51.794;21.590;2023-09-18T07:40:24;100060.56;;;21.00;100.00
51526;BME280;37611;51.794;21.590;2023-09-18T07:44:26;100060.17;;;21.16;100.00
51526;BME280;37611;51.794;21.590;2023-09-18T07:48:28;100063.64;;;21.38;100.00
51526;BME280;37611;51.794;21.590;2023-09-18T07:52:30;100066.02;;;21.55;100.00
51526;BME280;37611;51.794;21.590;2023-09-18T07:56:33;100071.86;;;21.74;100.00
51526;BME280;37611;51.794;21.590;2023-09-18T08:00:36;100074.35;;;21.98;100.00
51526;BME280;37611;51.794;21.590;2023-09-18T08:04:37;100075.39;;;22.19;100.00
51526;BME280;37611;51.794;21.590;2023-09-18T08:08:40;100073.00;;;22.32;100.00
51526;BME280;37611;51.794;21.590;2023-09-18T08:12:42;100072.84;;;22.40;100.00
51526;BME280;37611;51.794;21.590;2023-09-18T08:16:44;100065.33;;;22.58;100.00
51526;BME280;37611;51.794;21.590;2023-09-18T08:20:46;100061.64;;;22.75;100.00
51526;BME280;37611;51.794;21.590;2023-09-18T08:24:48;100060.48;;;22.93;99.92
51526;BME280;37611;51.794;21.590;2023-09-18T08:28:50;100062.14;;;23.15;99.95
51526;BME280;37611;51.794;21.590;2023-09-18T08:32:52;100054.63;;;23.47;99.62
51526;BME280;37611;51.794;21.590;2023-09-18T08:36:53;100047.34;;;23.74;98.05
51526;BME280;37611;51.794;21.590;2023-09-18T08:40:56;100044.16;;;23.95;95.15
51526;BME280;37611;51.794;21.590;2023-09-18T08:44:59;100046.45;;;24.17;94.78
51526;BME280;37611;51.794;21.590;2023-09-18T08:49:04;100042.23;;;24.38;94.06
51526;BME280;37611;51.794;21.590;2023-09-18T08:53:06;100046.36;;;24.58;92.87
51526;BME280;37611;51.794;21.590;2023-09-18T08:57:08;100050.19;;;24.79;91.54
51526;BME280;37611;51.794;21.590;2023-09-18T09:01:11;100041.02;;;24.88;88.88
51526;BME280;37611;51.794;21.590;2023-09-18T09:05:13;100035.74;;;24.97;86.79
51526;BME280;37611;51.794;21.590;2023-09-18T09:09:15;100032.09;;;25.11;86.74
51526;BME280;37611;51.794;21.590;2023-09-18T09:13:17;100031.09;;;25.27;86.39
51526;BME280;37611;51.794;21.590;2023-09-18T09:17:19;100027.55;;;25.36;85.52
51526;BME280;37611;51.794;21.590;2023-09-18T09:21:21;100025.27;;;25.56;84.51
51526;BME280;37611;51.794;21.590;2023-09-18T09:25:24;100022.92;;;25.74;84.01
51526;BME280;37611;51.794;21.590;2023-09-18T09:29:29;100017.89;;;25.99;83.19
51526;BME280;37611;51.794;21.590;2023-09-18T09:33:33;100016.48;;;26.31;83.71
51526;BME280;37611;51.794;21.590;2023-09-18T09:37:35;100014.41;;;26.68;81.42
51526;BME280;37611;51.794;21.590;2023-09-18T09:41:36;100003.70;;;26.85;77.22
51526;BME280;37611;51.794;21.590;2023-09-18T09:45:40;99997.86;;;27.00;77.41
51526;BME280;37611;51.794;21.590;2023-09-18T09:49:46;99997.60;;;27.26;76.19
51526;BME280;37611;51.794;21.590;2023-09-18T09:53:48;99997.07;;;27.40;74.34
51526;BME280;37611;51.794;21.590;2023-09-18T09:58:00;99991.61;;;27.52;74.43
51526;BME280;37611;51.794;21.590;2023-09-18T10:02:02;99985.08;;;27.81;73.76
51526;BME280;37611;51.794;21.590;2023-09-18T10:06:04;99979.14;;;28.06;71.45
51526;BME280;37611;51.794;21.590;2023-09-18T10:10:08;99974.71;;;28.16;68.72
51526;BME280;37611;51.794;21.590;2023-09-18T10:14:19;99967.75;;;28.17;67.99
51526;BME280;37611;51.794;21.590;2023-09-18T10:18:28;99964.80;;;28.31;68.82
51526;BME280;37611;51.794;21.590;2023-09-18T10:22:38;99959.79;;;28.41;66.56
51526;BME280;37611;51.794;21.590;2023-09-18T10:26:55;99954.39;;;28.42;63.93
51526;BME280;37611;51.794;21.590;2023-09-18T10:30:57;99951.73;;;28.43;63.76
51526;BME280;37611;51.794;21.590;2023-09-18T10:35:01;99949.55;;;28.67;62.59
51526;BME280;37611;51.794;21.590;2023-09-18T10:39:03;99947.09;;;28.82;62.49
51526;BME280;37611;51.794;21.590;2023-09-18T10:43:11;99943.59;;;28.75;62.45
51526;BME280;37611;51.794;21.590;2023-09-18T10:47:13;99936.73;;;28.75;61.03
51526;BME280;37611;51.794;21.590;2023-09-18T10:51:20;99935.52;;;28.77;57.54
51526;BME280;37611;51.794;21.590;2023-09-18T10:55:23;99930.64;;;28.67;58.16
51526;BME280;37611;51.794;21.590;2023-09-18T10:59:27;99931.93;;;28.64;56.84
51526;BME280;37611;51.794;21.590;2023-09-18T11:03:29;99923.13;;;28.62;57.85
51526;BME280;37611;51.794;21.590;2023-09-18T11:07:34;99919.77;;;28.67;56.96
51526;BME280;37611;51.794;21.590;2023-09-18T11:11:35;99915.29;;;28.61;56.92
51526;BME280;37611;51.794;21.590;2023-09-18T11:15:38;99916.17;;;28.52;56.92
51526;BME280;37611;51.794;21.590;2023-09-18T11:19:44;99913.10;;;28.37;56.50
51526;BME280;37611;51.794;21.590;2023-09-18T11:23:57;99913.41;;;28.32;57.28
51526;BME280;37611;51.794;21.590;2023-09-18T11:28:01;99907.69;;;28.33;57.48
51526;BME280;37611;51.794;21.590;2023-09-18T11:32:03;99899.05;;;28.40;57.45
51526;BME280;37611;51.794;21.590;2023-09-18T11:36:08;99894.35;;;28.27;57.44
51526;BME280;37611;51.794;21.590;2023-09-18T11:40:29;99892.67;;;28.24;57.29
51526;BME280;37611;51.794;21.590;2023-09-18T11:44:36;99891.70;;;28.26;57.01
51526;BME280;37611;51.794;21.590;2023-09-18T11:48:48;99889.75;;;28.19;56.22
51526;BME280;37611;51.794;21.590;2023-09-18T11:52:53;99886.03;;;28.07;56.62
51526;BME280;37611;51.794;21.590;2023-09-18T11:56:55;99876.26;;;27.96;56.80
51526;BME280;37611;51.794;21.590;2023-09-18T12:01:03;99879.88;;;27.95;56.42
51526;BME280;37611;51.794;21.590;2023-09-18T12:05:14;99879.23;;;27.99;56.44
51526;BME280;37611;51.794;21.590;2023-09-18T12:09:19;99877.30;;;27.91;57.35
51526;BME280;37611;51.794;21.590;2023-09-18T12:13:25;99870.02;;;27.69;57.75
51526;BME280;37611;51.794;21.590;2023-09-18T12:17:27;99864.22;;;27.60;57.66
51526;BME280;37611;51.794;21.590;2023-09-18T12:21:29;99856.54;;;27.71;56.88
51526;BME280;37611;51.794;21.590;2023-09-18T12:25:30;99849.10;;;27.81;56.11
51526;BME280;37611;51.794;21.590;2023-09-18T12:29:32;99844.25;;;27.82;55.22
51526;BME280;37611;51.794;21.590;2023-09-18T12:33:35;99843.02;;;27.81;54.99
51526;BME280;37611;51.794;21.590;2023-09-18T12:37:41;99842.79;;;27.81;54.49
51526;BME280;37611;51.794;21.590;2023-09-18T12:41:44;99840.73;;;27.76;54.66
51526;BME280;37611;51.794;21.590;2023-09-18T12:45:46;99835.03;;;27.70;54.44
51526;BME280;37611;51.794;21.590;2023-09-18T12:49:48;99826.83;;;27.69;54.71
51526;BME280;37611;51.794;21.590;2023-09-18T12:53:59;99826.69;;;27.79;55.68
51526;BME280;37611;51.794;21.590;2023-09-18T12:58:02;99824.05;;;27.91;56.10
51526;BME280;37611;51.794;21.590;2023-09-18T13:02:13;99820.70;;;27.89;55.70
51526;BME280;37611;51.794;21.590;2023-09-18T13:06:17;99820.85;;;27.76;56.48
51526;BME280;37611;51.794;21.590;2023-09-18T13:10:19;99813.59;;;27.46;57.39
51526;BME280;37611;51.794;21.590;2023-09-18T13:14:26;99809.34;;;27.21;58.10
51526;BME280;37611;51.794;21.590;2023-09-18T13:18:28;99800.23;;;26.96;59.53
51526;BME280;37611;51.794;21.590;2023-09-18T13:22:30;99797.80;;;26.79;60.58
51526;BME280;37611;51.794;21.590;2023-09-18T13:26:32;99794.61;;;26.63;61.24
51526;BME280;37611;51.794;21.590;2023-09-18T13:30:36;99790.91;;;26.56;61.92
51526;BME280;37611;51.794;21.590;2023-09-18T13:34:40;99786.40;;;26.69;61.54
51526;BME280;37611;51.794;21.590;2023-09-18T13:38:42;99782.68;;;26.84;61.09
51526;BME280;37611;51.794;21.590;2023-09-18T13:42:46;99777.97;;;26.94;61.69
51526;BME280;37611;51.794;21.590;2023-09-18T13:46:49;99769.67;;;26.99;61.86
51526;BME280;37611;51.794;21.590;2023-09-18T13:50:51;99765.20;;;27.02;62.32
51526;BME280;37611;51.794;21.590;2023-09-18T13:54:54;99763.14;;;26.97;63.64
51526;BME280;37611;51.794;21.590;2023-09-18T13:58:56;99759.63;;;26.93;64.89
51526;BME280;37611;51.794;21.590;2023-09-18T14:02:57;99754.52;;;26.95;65.69
51526;BME280;37611;51.794;21.590;2023-09-18T14:06:59;99751.53;;;26.88;66.21
51526;BME280;37611;51.794;21.590;2023-09-18T14:11:01;99746.55;;;26.77;66.56
51526;BME280;37611;51.794;21.590;2023-09-18T14:15:05;99738.37;;;26.61;66.87
51526;BME280;37611;51.794;21.590;2023-09-18T14:19:07;99735.73;;;26.50;67.09
51526;BME280;37611;51.794;21.590;2023-09-18T14:23:12;99734.48;;;26.47;67.38
51526;BME280;37611;51.794;21.590;2023-09-18T14:27:14;99725.48;;;26.48;67.70
51526;BME280;37611;51.794;21.590;2023-09-18T14:31:17;99719.73;;;26.44;67.80
51526;BME280;37611;51.794;21.590;2023-09-18T14:35:19;99718.38;;;26.30;68.03
51526;BME280;37611;51.794;21.590;2023-09-18T14:39:21;99709.25;;;26.24;68.87
51526;BME280;37611;51.794;21.590;2023-09-18T14:43:23;99712.96;;;26.23;68.97
51526;BME280;37611;51.794;21.590;2023-09-18T14:47:24;99704.09;;;26.16;68.48
51526;BME280;37611;51.794;21.590;2023-09-18T14:51:27;99705.54;;;26.05;68.73
51526;BME280;37611;51.794;21.590;2023-09-18T14:55:29;99700.73;;;25.94;69.06
51526;BME280;37611;51.794;21.590;2023-09-18T14:59:32;99697.28;;;25.82;69.36
51526;BME280;37611;51.794;21.590;2023-09-18T15:03:34;99693.80;;;25.71;70.01
51526;BME280;37611;51.794;21.590;2023-09-18T15:07:35;99688.95;;;25.62;70.34
51526;BME280;37611;51.794;21.590;2023-09-18T15:11:37;99685.95;;;25.56;70.77
51526;BME280;37611;51.794;21.590;2023-09-18T15:15:41;99680.41;;;25.56;70.83
51526;BME280;37611;51.794;21.590;2023-09-18T15:19:43;99679.88;;;25.57;70.77
51526;BME280;37611;51.794;21.590;2023-09-18T15:23:44;99684.52;;;25.58;70.62
51526;BME280;37611;51.794;21.590;2023-09-18T15:27:46;99684.52;;;25.58;70.64
51526;BME280;37611;51.794;21.590;2023-09-18T15:31:47;99679.88;;;25.56;70.47
51526;BME280;37611;51.794;21.590;2023-09-18T15:35:49;99678.99;;;25.53;70.23
51526;BME280;37611;51.794;21.590;2023-09-18T15:39:51;99672.83;;;25.48;70.37
51526;BME280;37611;51.794;21.590;2023-09-18T15:43:54;99674.13;;;25.42;70.39
51526;BME280;37611;51.794;21.590;2023-09-18T15:47:55;99672.95;;;25.36;70.64
51526;BME280;37611;51.794;21.590;2023-09-18T15:51:57;99668.59;;;25.29;70.72
51526;BME280;37611;51.794;21.590;2023-09-18T15:55:59;99667.63;;;25.23;70.94
51526;BME280;37611;51.794;21.590;2023-09-18T16:00:06;99662.09;;;25.16;71.25
51526;BME280;37611;51.794;21.590;2023-09-18T16:04:08;99655.50;;;25.08;71.49
51526;BME280;37611;51.794;21.590;2023-09-18T16:08:09;99655.50;;;24.98;71.87
51526;BME280;37611;51.794;21.590;2023-09-18T16:12:11;99659.60;;;24.87;72.18
51526;BME280;37611;51.794;21.590;2023-09-18T16:16:13;99658.91;;;24.78;72.45
51526;BME280;37611;51.794;21.590;2023-09-18T16:20:15;99654.78;;;24.67;72.73
51526;BME280;37611;51.794;21.590;2023-09-18T16:24:16;99658.75;;;24.56;72.96
51526;BME280;37611;51.794;21.590;2023-09-18T16:28:18;99659.13;;;24.46;73.26
51526;BME280;37611;51.794;21.590;2023-09-18T16:32:21;99655.02;;;24.36;73.57
51526;BME280;37611;51.794;21.590;2023-09-18T16:36:23;99656.02;;;24.26;73.94
51526;BME280;37611;51.794;21.590;2023-09-18T16:40:27;99656.80;;;24.15;74.60
51526;BME280;37611;51.794;21.590;2023-09-18T16:44:31;99651.01;;;24.03;75.08
51526;BME280;37611;51.794;21.590;2023-09-18T16:48:33;99646.86;;;23.89;75.80
51526;BME280;37611;51.794;21.590;2023-09-18T16:52:35;99642.50;;;23.77;76.45
51526;BME280;37611;51.794;21.590;2023-09-18T16:56:37;99640.44;;;23.65;76.74
51526;BME280;37611;51.794;21.590;2023-09-18T17:00:39;99634.38;;;23.54;77.41
51526;BME280;37611;51.794;21.590;2023-09-18T17:04:41;99631.38;;;23.43;77.67
51526;BME280;37611;51.794;21.590;2023-09-18T17:08:44;99633.66;;;23.31;78.13
51526;BME280;37611;51.794;21.590;2023-09-18T17:12:46;99631.13;;;23.20;78.69
51526;BME280;37611;51.794;21.590;2023-09-18T17:16:48;99630.53;;;23.10;79.00
51526;BME280;37611;51.794;21.590;2023-09-18T17:20:51;99631.34;;;22.96;79.75
51526;BME280;37611;51.794;21.590;2023-09-18T17:24:53;99633.27;;;22.86;80.17
51526;BME280;37611;51.794;21.590;2023-09-18T17:28:55;99632.65;;;22.76;80.64
51526;BME280;37611;51.794;21.590;2023-09-18T17:32:57;99637.04;;;22.66;81.23
51526;BME280;37611;51.794;21.590;2023-09-18T17:36:59;99638.33;;;22.58;81.61
51526;BME280;37611;51.794;21.590;2023-09-18T17:41:01;99635.46;;;22.50;81.62
51526;BME280;37611;51.794;21.590;2023-09-18T17:45:03;99636.08;;;22.43;82.18
51526;BME280;37611;51.794;21.590;2023-09-18T17:49:05;99636.58;;;22.35;82.80
51526;BME280;37611;51.794;21.590;2023-09-18T17:53:09;99637.52;;;22.28;83.74
51526;BME280;37611;51.794;21.590;2023-09-18T17:57:11;99640.52;;;22.24;84.19
51526;BME280;37611;51.794;21.590;2023-09-18T18:01:13;99637.27;;;22.19;84.35
51526;BME280;37611;51.794;21.590;2023-09-18T18:05:15;99637.00;;;22.14;84.15
51526;BME280;37611;51.794;21.590;2023-09-18T18:09:17;99635.89;;;22.06;84.60
51526;BME280;37611;51.794;21.590;2023-09-18T18:13:19;99636.73;;;21.97;85.25
51526;BME280;37611;51.794;21.590;2023-09-18T18:17:22;99635.75;;;21.91;85.25
51526;BME280;37611;51.794;21.590;2023-09-18T18:21:25;99636.69;;;21.85;86.00
51526;BME280;37611;51.794;21.590;2023-09-18T18:25:27;99633.30;;;21.79;86.08
51526;BME280;37611;51.794;21.590;2023-09-18T18:29:28;99634.90;;;21.74;86.04
51526;BME280;37611;51.794;21.590;2023-09-18T18:33:30;99635.70;;;21.69;86.80
51526;BME280;37611;51.794;21.590;2023-09-18T18:37:32;99634.95;;;21.65;86.82
51526;BME280;37611;51.794;21.590;2023-09-18T18:41:34;99637.27;;;21.60;87.17
51526;BME280;37611;51.794;21.590;2023-09-18T18:45:35;99632.09;;;21.53;87.79
51526;BME280;37611;51.794;21.590;2023-09-18T18:49:37;99622.05;;;21.46;87.71
51526;BME280;37611;51.794;21.590;2023-09-18T18:53:39;99613.30;;;21.41;88.28
51526;BME280;37611;51.794;21.590;2023-09-18T18:57:42;99609.80;;;21.39;88.72
51526;BME280;37611;51.794;21.590;2023-09-18T19:01:44;99608.67;;;21.38;88.99
51526;BME280;37611;51.794;21.590;2023-09-18T19:05:46;99608.43;;;21.38;89.21
51526;BME280;37611;51.794;21.590;2023-09-18T19:09:48;99605.52;;;21.38;89.14
51526;BME280;37611;51.794;21.590;2023-09-18T19:13:50;99605.69;;;21.37;89.14
51526;BME280;37611;51.794;21.590;2023-09-18T19:17:52;99604.50;;;21.34;89.32
51526;BME280;37611;51.794;21.590;2023-09-18T19:21:54;99601.10;;;21.31;89.62
51526;BME280;37611;51.794;21.590;2023-09-18T19:25:56;99593.37;;;21.27;90.01
51526;BME280;37611;51.794;21.590;2023-09-18T19:29:58;99589.38;;;21.26;89.98
51526;BME280;37611;51.794;21.590;2023-09-18T19:34:00;99580.79;;;21.22;90.23
51526;BME280;37611;51.794;21.590;2023-09-18T19:38:02;99578.46;;;21.17;90.51
51526;BME280;37611;51.794;21.590;2023-09-18T19:42:05;99576.58;;;21.11;90.93
51526;BME280;37611;51.794;21.590;2023-09-18T19:46:08;99574.38;;;21.06;91.10
51526;BME280;37611;51.794;21.590;2023-09-18T19:50:10;99574.48;;;21.01;91.41
51526;BME280;37611;51.794;21.590;2023-09-18T19:59:03;99569.75;;;20.89;92.45
51526;BME280;37611;51.794;21.590;2023-09-18T20:03:05;99566.13;;;20.83;92.43
51526;BME280;37611;51.794;21.590;2023-09-18T20:07:07;99561.43;;;20.78;92.24
51526;BME280;37611;51.794;21.590;2023-09-18T20:11:10;99554.67;;;20.74;92.94
51526;BME280;37611;51.794;21.590;2023-09-18T20:15:13;99552.80;;;20.70;93.20
51526;BME280;37611;51.794;21.590;2023-09-18T20:19:16;99551.50;;;20.66;93.69
51526;BME280;37611;51.794;21.590;2023-09-18T20:23:18;99543.34;;;20.60;94.26
51526;BME280;37611;51.794;21.590;2023-09-18T20:27:20;99539.42;;;20.54;93.86
51526;BME280;37611;51.794;21.590;2023-09-18T20:31:22;99540.14;;;20.45;93.95
51526;BME280;37611;51.794;21.590;2023-09-18T20:35:25;99539.73;;;20.36;94.22
51526;BME280;37611;51.794;21.590;2023-09-18T20:39:27;99540.17;;;20.28;94.73
51526;BME280;37611;51.794;21.590;2023-09-18T20:43:29;99533.63;;;20.21;95.38
51526;BME280;37611;51.794;21.590;2023-09-18T20:47:31;99530.21;;;20.15;95.83
51526;BME280;37611;51.794;21.590;2023-09-18T20:51:34;99522.86;;;20.10;96.12
51526;BME280;37611;51.794;21.590;2023-09-18T20:55:36;99519.83;;;20.06;96.79
51526;BME280;37611;51.794;21.590;2023-09-18T20:59:37;99521.27;;;20.03;96.63
51526;BME280;37611;51.794;21.590;2023-09-18T21:03:39;99524.14;;;20.01;97.12